LDRI/RJK METAR and TAF weather

Enter ICAO airport designator
Station Type Date Time Source
LDRI METAR 2018/12/13 08:30 UTC NOAA

LDRI 130830Z 26004KT 230V310 9999 FEW043 SCT066 06/M05 Q1016


Station Type Date Time Source
LDRI Decoded METAR 2018/12/13 08:30 UTC NOAA

Rijeka / Omisalj, Croatia (LDRI) 45-13N 014-35E
Dec 13, 2018 - 03:30 AM EST / 2018.12.13 0830 UTC
Wind: from the W (260 degrees) at 5 MPH (4 KT) (direction variable):0
Visibility: greater than 7 mile(s):0
Sky conditions: partly cloudy
Temperature: 42 F (6 C)
Dew Point: 23 F (-5 C)
Relative Humidity: 45%
Pressure (altimeter): 30.00 in. Hg (1016 hPa)
ob: LDRI 130830Z 26004KT 230V310 9999 FEW043 SCT066 06/M05 Q1016
cycle: 8

Station Type Date Time Source
LDRI TAF 2018/12/13 07:24 UTC NOAA

TAF LDRI 130615Z 1307/1406 06010KT 9999 BKN030 TX06/1313Z TN03/1402Z
TEMPO 1307/1318 32008KT PROB30
TEMPO 1307/1312 06015G30KT
TEMPO 1311/1315 RA PROB40
TEMPO 1403/1406 06015G30KT


Example: see airport list